sensor_id;sensor_type;location;lat;lon;timestamp;P1;durP1;ratioP1;P2;durP2;ratioP2
11396;SDS011;5754;43.726;7.416;2023-02-18T00:02:14;13.10;;;10.40;;
11396;SDS011;5754;43.726;7.416;2023-02-18T00:04:53;11.17;;;10.07;;
11396;SDS011;5754;43.726;7.416;2023-02-18T00:07:28;13.57;;;10.83;;
11396;SDS011;5754;43.726;7.416;2023-02-18T00:10:08;10.67;;;9.67;;
11396;SDS011;5754;43.726;7.416;2023-02-18T00:12:44;11.47;;;10.20;;
11396;SDS011;5754;43.726;7.416;2023-02-18T00:15:20;11.30;;;10.10;;
11396;SDS011;5754;43.726;7.416;2023-02-18T00:17:55;11.67;;;10.23;;
11396;SDS011;5754;43.726;7.416;2023-02-18T00:20:30;11.03;;;9.93;;
11396;SDS011;5754;43.726;7.416;2023-02-18T00:23:05;11.47;;;10.27;;
11396;SDS011;5754;43.726;7.416;2023-02-18T00:25:40;11.20;;;10.07;;
11396;SDS011;5754;43.726;7.416;2023-02-18T00:28:14;11.63;;;10.57;;
11396;SDS011;5754;43.726;7.416;2023-02-18T00:30:48;11.53;;;10.43;;
11396;SDS011;5754;43.726;7.416;2023-02-18T00:33:23;11.63;;;10.47;;
11396;SDS011;5754;43.726;7.416;2023-02-18T00:36:05;12.13;;;11.13;;
11396;SDS011;5754;43.726;7.416;2023-02-18T00:38:52;12.20;;;10.73;;
11396;SDS011;5754;43.726;7.416;2023-02-18T00:41:27;11.63;;;10.13;;
11396;SDS011;5754;43.726;7.416;2023-02-18T00:44:02;10.93;;;9.93;;
11396;SDS011;5754;43.726;7.416;2023-02-18T00:46:40;11.07;;;10.03;;
11396;SDS011;5754;43.726;7.416;2023-02-18T00:51:55;10.97;;;9.97;;
11396;SDS011;5754;43.726;7.416;2023-02-18T00:54:31;11.27;;;10.17;;
11396;SDS011;5754;43.726;7.416;2023-02-18T00:57:05;10.73;;;9.77;;
11396;SDS011;5754;43.726;7.416;2023-02-18T00:59:40;11.93;;;10.57;;
11396;SDS011;5754;43.726;7.416;2023-02-18T01:02:15;11.63;;;10.43;;
11396;SDS011;5754;43.726;7.416;2023-02-18T01:04:49;10.73;;;9.80;;
11396;SDS011;5754;43.726;7.416;2023-02-18T01:07:24;12.03;;;10.80;;
11396;SDS011;5754;43.726;7.416;2023-02-18T01:09:58;11.47;;;10.43;;
11396;SDS011;5754;43.726;7.416;2023-02-18T01:12:32;11.53;;;10.43;;
11396;SDS011;5754;43.726;7.416;2023-02-18T01:15:07;12.27;;;10.37;;
11396;SDS011;5754;43.726;7.416;2023-02-18T01:17:42;12.53;;;11.37;;
11396;SDS011;5754;43.726;7.416;2023-02-18T01:20:17;11.67;;;10.67;;
11396;SDS011;5754;43.726;7.416;2023-02-18T01:22:52;11.77;;;10.63;;
11396;SDS011;5754;43.726;7.416;2023-02-18T01:25:28;12.27;;;11.07;;
11396;SDS011;5754;43.726;7.416;2023-02-18T01:28:04;11.20;;;10.23;;
11396;SDS011;5754;43.726;7.416;2023-02-18T01:30:39;11.43;;;10.43;;
11396;SDS011;5754;43.726;7.416;2023-02-18T01:33:15;13.33;;;9.93;;
11396;SDS011;5754;43.726;7.416;2023-02-18T01:35:51;11.70;;;10.47;;
11396;SDS011;5754;43.726;7.416;2023-02-18T01:38:30;11.83;;;10.67;;
11396;SDS011;5754;43.726;7.416;2023-02-18T01:41:04;11.00;;;9.97;;
11396;SDS011;5754;43.726;7.416;2023-02-18T01:43:38;10.97;;;9.87;;
11396;SDS011;5754;43.726;7.416;2023-02-18T01:46:16;10.93;;;9.93;;
11396;SDS011;5754;43.726;7.416;2023-02-18T01:48:56;11.27;;;10.30;;
11396;SDS011;5754;43.726;7.416;2023-02-18T01:51:35;11.07;;;10.17;;
11396;SDS011;5754;43.726;7.416;2023-02-18T01:54:18;11.47;;;10.47;;
11396;SDS011;5754;43.726;7.416;2023-02-18T01:57:02;10.47;;;9.57;;
11396;SDS011;5754;43.726;7.416;2023-02-18T01:59:48;10.90;;;9.93;;
11396;SDS011;5754;43.726;7.416;2023-02-18T02:02:24;11.03;;;10.03;;
11396;SDS011;5754;43.726;7.416;2023-02-18T02:05:03;10.17;;;9.37;;
11396;SDS011;5754;43.726;7.416;2023-02-18T02:07:37;11.10;;;9.87;;
11396;SDS011;5754;43.726;7.416;2023-02-18T02:10:13;11.87;;;10.37;;
11396;SDS011;5754;43.726;7.416;2023-02-18T02:13:00;11.97;;;10.30;;
11396;SDS011;5754;43.726;7.416;2023-02-18T02:15:49;10.03;;;9.13;;
11396;SDS011;5754;43.726;7.416;2023-02-18T02:18:29;10.33;;;9.40;;
11396;SDS011;5754;43.726;7.416;2023-02-18T02:22:34;9.63;;;8.67;;
11396;SDS011;5754;43.726;7.416;2023-02-18T02:36:13;10.33;;;9.43;;
11396;SDS011;5754;43.726;7.416;2023-02-18T02:39:00;9.90;;;8.90;;
11396;SDS011;5754;43.726;7.416;2023-02-18T02:46:11;10.90;;;9.80;;
11396;SDS011;5754;43.726;7.416;2023-02-18T02:50:16;9.60;;;8.80;;
11396;SDS011;5754;43.726;7.416;2023-02-18T02:52:54;10.57;;;9.40;;
11396;SDS011;5754;43.726;7.416;2023-02-18T02:55:30;10.40;;;9.40;;
11396;SDS011;5754;43.726;7.416;2023-02-18T02:58:08;10.40;;;9.40;;
11396;SDS011;5754;43.726;7.416;2023-02-18T03:01:34;10.67;;;9.50;;
11396;SDS011;5754;43.726;7.416;2023-02-18T03:16:35;9.70;;;8.80;;
11396;SDS011;5754;43.726;7.416;2023-02-18T03:19:21;10.40;;;8.57;;
11396;SDS011;5754;43.726;7.416;2023-02-18T03:22:04;9.70;;;8.70;;
11396;SDS011;5754;43.726;7.416;2023-02-18T03:24:41;8.97;;;8.07;;
11396;SDS011;5754;43.726;7.416;2023-02-18T03:27:24;8.73;;;7.57;;
11396;SDS011;5754;43.726;7.416;2023-02-18T03:30:14;8.80;;;8.00;;
11396;SDS011;5754;43.726;7.416;2023-02-18T03:32:49;8.03;;;7.40;;
11396;SDS011;5754;43.726;7.416;2023-02-18T03:35:25;7.73;;;7.03;;
11396;SDS011;5754;43.726;7.416;2023-02-18T03:38:23;9.07;;;8.17;;
11396;SDS011;5754;43.726;7.416;2023-02-18T03:40:59;8.93;;;8.00;;
11396;SDS011;5754;43.726;7.416;2023-02-18T03:43:34;8.30;;;7.50;;
11396;SDS011;5754;43.726;7.416;2023-02-18T03:46:08;9.70;;;7.60;;
11396;SDS011;5754;43.726;7.416;2023-02-18T03:48:44;8.43;;;7.57;;
11396;SDS011;5754;43.726;7.416;2023-02-18T03:51:18;8.33;;;7.40;;
11396;SDS011;5754;43.726;7.416;2023-02-18T03:53:53;8.50;;;7.50;;
11396;SDS011;5754;43.726;7.416;2023-02-18T03:56:28;8.40;;;7.70;;
11396;SDS011;5754;43.726;7.416;2023-02-18T03:59:03;8.47;;;7.40;;
11396;SDS011;5754;43.726;7.416;2023-02-18T04:01:37;8.47;;;7.50;;
11396;SDS011;5754;43.726;7.416;2023-02-18T04:04:12;8.60;;;7.80;;
11396;SDS011;5754;43.726;7.416;2023-02-18T04:06:48;8.70;;;7.83;;
11396;SDS011;5754;43.726;7.416;2023-02-18T04:09:23;8.60;;;7.80;;
11396;SDS011;5754;43.726;7.416;2023-02-18T04:11:57;8.10;;;7.10;;
11396;SDS011;5754;43.726;7.416;2023-02-18T04:14:31;11.50;;;7.33;;
11396;SDS011;5754;43.726;7.416;2023-02-18T04:17:06;9.13;;;8.23;;
11396;SDS011;5754;43.726;7.416;2023-02-18T04:19:40;8.33;;;7.67;;
11396;SDS011;5754;43.726;7.416;2023-02-18T04:22:15;8.70;;;7.57;;
11396;SDS011;5754;43.726;7.416;2023-02-18T04:24:50;8.47;;;7.17;;
11396;SDS011;5754;43.726;7.416;2023-02-18T04:27:25;8.67;;;7.90;;
11396;SDS011;5754;43.726;7.416;2023-02-18T04:30:00;8.33;;;7.57;;
11396;SDS011;5754;43.726;7.416;2023-02-18T04:32:34;8.40;;;7.47;;
11396;SDS011;5754;43.726;7.416;2023-02-18T04:35:09;8.90;;;8.00;;
11396;SDS011;5754;43.726;7.416;2023-02-18T04:37:43;8.37;;;7.67;;
11396;SDS011;5754;43.726;7.416;2023-02-18T04:40:19;8.30;;;7.50;;
11396;SDS011;5754;43.726;7.416;2023-02-18T04:42:54;8.83;;;7.97;;
11396;SDS011;5754;43.726;7.416;2023-02-18T04:45:28;9.30;;;8.43;;
11396;SDS011;5754;43.726;7.416;2023-02-18T04:48:02;8.63;;;7.77;;
11396;SDS011;5754;43.726;7.416;2023-02-18T04:50:38;9.10;;;8.20;;
11396;SDS011;5754;43.726;7.416;2023-02-18T04:53:12;8.97;;;8.07;;
11396;SDS011;5754;43.726;7.416;2023-02-18T04:55:50;9.47;;;8.47;;
11396;SDS011;5754;43.726;7.416;2023-02-18T04:58:25;8.90;;;8.07;;
11396;SDS011;5754;43.726;7.416;2023-02-18T05:01:00;9.70;;;8.70;;
11396;SDS011;5754;43.726;7.416;2023-02-18T05:03:35;10.87;;;9.20;;
11396;SDS011;5754;43.726;7.416;2023-02-18T05:06:09;9.93;;;9.03;;
11396;SDS011;5754;43.726;7.416;2023-02-18T05:08:47;10.57;;;8.37;;
11396;SDS011;5754;43.726;7.416;2023-02-18T05:11:22;9.07;;;8.23;;
11396;SDS011;5754;43.726;7.416;2023-02-18T05:13:56;9.83;;;8.90;;
11396;SDS011;5754;43.726;7.416;2023-02-18T05:16:30;9.40;;;8.57;;
11396;SDS011;5754;43.726;7.416;2023-02-18T05:19:06;9.73;;;8.83;;
11396;SDS011;5754;43.726;7.416;2023-02-18T05:21:40;9.03;;;8.13;;
11396;SDS011;5754;43.726;7.416;2023-02-18T05:24:15;8.80;;;8.00;;
11396;SDS011;5754;43.726;7.416;2023-02-18T05:26:49;8.50;;;7.67;;
11396;SDS011;5754;43.726;7.416;2023-02-18T05:29:24;10.77;;;9.17;;
11396;SDS011;5754;43.726;7.416;2023-02-18T05:31:58;9.77;;;8.87;;
11396;SDS011;5754;43.726;7.416;2023-02-18T05:34:33;11.83;;;9.03;;
11396;SDS011;5754;43.726;7.416;2023-02-18T05:37:08;9.47;;;8.57;;
11396;SDS011;5754;43.726;7.416;2023-02-18T05:39:44;10.00;;;9.10;;
11396;SDS011;5754;43.726;7.416;2023-02-18T05:42:19;9.37;;;8.50;;
11396;SDS011;5754;43.726;7.416;2023-02-18T05:44:53;10.87;;;9.40;;
11396;SDS011;5754;43.726;7.416;2023-02-18T05:47:27;9.53;;;8.50;;
11396;SDS011;5754;43.726;7.416;2023-02-18T05:50:02;9.80;;;8.80;;
11396;SDS011;5754;43.726;7.416;2023-02-18T05:52:37;9.80;;;9.00;;
11396;SDS011;5754;43.726;7.416;2023-02-18T05:55:13;9.90;;;9.00;;
11396;SDS011;5754;43.726;7.416;2023-02-18T05:57:47;9.80;;;8.87;;
11396;SDS011;5754;43.726;7.416;2023-02-18T06:00:22;8.97;;;7.80;;
11396;SDS011;5754;43.726;7.416;2023-02-18T06:02:56;10.17;;;9.10;;
11396;SDS011;5754;43.726;7.416;2023-02-18T06:05:31;9.80;;;8.83;;
11396;SDS011;5754;43.726;7.416;2023-02-18T06:08:06;9.90;;;8.73;;
11396;SDS011;5754;43.726;7.416;2023-02-18T06:10:41;9.83;;;8.83;;
11396;SDS011;5754;43.726;7.416;2023-02-18T06:13:16;10.10;;;9.10;;
11396;SDS011;5754;43.726;7.416;2023-02-18T06:15:51;9.80;;;8.90;;
11396;SDS011;5754;43.726;7.416;2023-02-18T06:18:26;9.97;;;8.80;;
11396;SDS011;5754;43.726;7.416;2023-02-18T06:21:02;10.27;;;9.27;;
11396;SDS011;5754;43.726;7.416;2023-02-18T06:23:37;11.80;;;9.10;;
11396;SDS011;5754;43.726;7.416;2023-02-18T06:26:12;8.87;;;7.97;;
11396;SDS011;5754;43.726;7.416;2023-02-18T06:28:47;9.27;;;8.37;;
11396;SDS011;5754;43.726;7.416;2023-02-18T06:31:21;10.27;;;9.20;;
11396;SDS011;5754;43.726;7.416;2023-02-18T06:33:55;13.03;;;9.73;;
11396;SDS011;5754;43.726;7.416;2023-02-18T06:36:30;41.90;;;22.00;;
11396;SDS011;5754;43.726;7.416;2023-02-18T06:39:04;10.83;;;9.70;;
11396;SDS011;5754;43.726;7.416;2023-02-18T06:41:39;12.50;;;9.67;;
11396;SDS011;5754;43.726;7.416;2023-02-18T06:44:14;10.43;;;9.43;;
11396;SDS011;5754;43.726;7.416;2023-02-18T06:46:49;10.07;;;8.10;;
11396;SDS011;5754;43.726;7.416;2023-02-18T06:49:24;12.30;;;8.73;;
11396;SDS011;5754;43.726;7.416;2023-02-18T06:51:59;10.77;;;9.53;;
11396;SDS011;5754;43.726;7.416;2023-02-18T06:54:33;10.33;;;9.30;;
11396;SDS011;5754;43.726;7.416;2023-02-18T06:57:09;11.33;;;10.27;;
11396;SDS011;5754;43.726;7.416;2023-02-18T06:59:44;11.17;;;10.17;;
11396;SDS011;5754;43.726;7.416;2023-02-18T07:02:19;12.00;;;10.90;;
11396;SDS011;5754;43.726;7.416;2023-02-18T07:04:53;11.80;;;10.63;;
11396;SDS011;5754;43.726;7.416;2023-02-18T07:07:28;14.07;;;11.00;;
11396;SDS011;5754;43.726;7.416;2023-02-18T07:10:03;11.43;;;10.10;;
11396;SDS011;5754;43.726;7.416;2023-02-18T07:12:38;14.23;;;11.23;;
11396;SDS011;5754;43.726;7.416;2023-02-18T07:15:12;13.57;;;10.80;;
11396;SDS011;5754;43.726;7.416;2023-02-18T07:17:47;14.67;;;11.40;;
11396;SDS011;5754;43.726;7.416;2023-02-18T07:20:21;11.67;;;10.57;;
11396;SDS011;5754;43.726;7.416;2023-02-18T07:22:56;11.27;;;10.20;;
11396;SDS011;5754;43.726;7.416;2023-02-18T07:25:31;12.00;;;10.30;;
11396;SDS011;5754;43.726;7.416;2023-02-18T07:28:06;10.67;;;9.67;;
11396;SDS011;5754;43.726;7.416;2023-02-18T07:30:40;11.23;;;10.03;;
11396;SDS011;5754;43.726;7.416;2023-02-18T07:33:14;10.97;;;9.87;;
11396;SDS011;5754;43.726;7.416;2023-02-18T07:35:59;11.87;;;10.77;;
11396;SDS011;5754;43.726;7.416;2023-02-18T07:38:33;11.27;;;9.90;;
11396;SDS011;5754;43.726;7.416;2023-02-18T07:41:16;10.93;;;9.83;;
11396;SDS011;5754;43.726;7.416;2023-02-18T07:43:52;11.60;;;10.47;;
11396;SDS011;5754;43.726;7.416;2023-02-18T07:46:26;10.90;;;9.83;;
11396;SDS011;5754;43.726;7.416;2023-02-18T07:49:01;11.13;;;10.13;;
11396;SDS011;5754;43.726;7.416;2023-02-18T07:51:35;10.80;;;9.80;;
11396;SDS011;5754;43.726;7.416;2023-02-18T07:54:13;12.13;;;10.60;;
11396;SDS011;5754;43.726;7.416;2023-02-18T07:56:47;10.50;;;9.50;;
11396;SDS011;5754;43.726;7.416;2023-02-18T07:59:22;10.43;;;9.33;;
11396;SDS011;5754;43.726;7.416;2023-02-18T08:01:57;11.60;;;10.43;;
11396;SDS011;5754;43.726;7.416;2023-02-18T08:04:33;11.40;;;10.30;;
11396;SDS011;5754;43.726;7.416;2023-02-18T08:07:11;12.27;;;11.07;;
11396;SDS011;5754;43.726;7.416;2023-02-18T08:09:45;12.00;;;10.80;;
11396;SDS011;5754;43.726;7.416;2023-02-18T08:12:21;11.67;;;10.57;;
11396;SDS011;5754;43.726;7.416;2023-02-18T08:14:57;13.23;;;11.83;;
11396;SDS011;5754;43.726;7.416;2023-02-18T08:17:31;12.80;;;11.70;;
11396;SDS011;5754;43.726;7.416;2023-02-18T08:20:06;12.83;;;11.43;;
11396;SDS011;5754;43.726;7.416;2023-02-18T08:22:41;12.23;;;10.50;;
11396;SDS011;5754;43.726;7.416;2023-02-18T08:25:16;11.33;;;10.17;;
11396;SDS011;5754;43.726;7.416;2023-02-18T08:28:02;11.63;;;10.53;;
11396;SDS011;5754;43.726;7.416;2023-02-18T08:30:37;10.63;;;9.63;;
11396;SDS011;5754;43.726;7.416;2023-02-18T08:33:11;11.77;;;10.20;;
11396;SDS011;5754;43.726;7.416;2023-02-18T08:35:46;12.87;;;10.57;;
11396;SDS011;5754;43.726;7.416;2023-02-18T08:38:22;12.10;;;10.90;;
11396;SDS011;5754;43.726;7.416;2023-02-18T08:41:01;11.83;;;10.00;;
11396;SDS011;5754;43.726;7.416;2023-02-18T08:43:36;10.73;;;9.67;;
11396;SDS011;5754;43.726;7.416;2023-02-18T08:46:10;15.07;;;11.27;;
11396;SDS011;5754;43.726;7.416;2023-02-18T08:48:45;14.07;;;11.47;;
11396;SDS011;5754;43.726;7.416;2023-02-18T08:51:20;14.50;;;11.07;;
11396;SDS011;5754;43.726;7.416;2023-02-18T08:53:56;12.27;;;10.67;;
11396;SDS011;5754;43.726;7.416;2023-02-18T08:56:30;11.13;;;10.03;;
11396;SDS011;5754;43.726;7.416;2023-02-18T08:59:06;13.03;;;10.23;;
11396;SDS011;5754;43.726;7.416;2023-02-18T09:01:41;12.83;;;10.43;;
11396;SDS011;5754;43.726;7.416;2023-02-18T09:04:15;11.97;;;10.73;;
11396;SDS011;5754;43.726;7.416;2023-02-18T09:06:51;12.33;;;10.80;;
11396;SDS011;5754;43.726;7.416;2023-02-18T09:09:25;12.70;;;10.57;;
11396;SDS011;5754;43.726;7.416;2023-02-18T09:12:00;10.80;;;9.73;;
11396;SDS011;5754;43.726;7.416;2023-02-18T09:14:35;12.13;;;10.17;;
11396;SDS011;5754;43.726;7.416;2023-02-18T09:17:10;11.20;;;10.03;;
11396;SDS011;5754;43.726;7.416;2023-02-18T09:19:45;12.63;;;10.07;;
11396;SDS011;5754;43.726;7.416;2023-02-18T09:22:20;12.90;;;10.60;;
11396;SDS011;5754;43.726;7.416;2023-02-18T09:24:54;14.07;;;10.67;;
11396;SDS011;5754;43.726;7.416;2023-02-18T09:27:30;10.67;;;9.67;;
11396;SDS011;5754;43.726;7.416;2023-02-18T09:30:05;10.70;;;9.60;;
11396;SDS011;5754;43.726;7.416;2023-02-18T09:32:40;10.67;;;9.57;;
11396;SDS011;5754;43.726;7.416;2023-02-18T09:35:15;10.90;;;9.77;;
11396;SDS011;5754;43.726;7.416;2023-02-18T09:37:49;10.50;;;9.40;;
11396;SDS011;5754;43.726;7.416;2023-02-18T09:40:28;10.20;;;8.97;;
11396;SDS011;5754;43.726;7.416;2023-02-18T09:43:05;9.57;;;8.67;;
11396;SDS011;5754;43.726;7.416;2023-02-18T09:45:40;10.20;;;9.20;;
11396;SDS011;5754;43.726;7.416;2023-02-18T09:48:14;9.43;;;8.40;;
11396;SDS011;5754;43.726;7.416;2023-02-18T09:50:51;12.27;;;9.57;;
11396;SDS011;5754;43.726;7.416;2023-02-18T09:53:26;9.87;;;8.97;;
11396;SDS011;5754;43.726;7.416;2023-02-18T09:56:02;11.03;;;9.07;;
11396;SDS011;5754;43.726;7.416;2023-02-18T09:58:36;9.87;;;8.87;;
11396;SDS011;5754;43.726;7.416;2023-02-18T10:04:28;11.70;;;9.07;;
11396;SDS011;5754;43.726;7.416;2023-02-18T10:07:04;12.13;;;9.03;;
11396;SDS011;5754;43.726;7.416;2023-02-18T10:09:40;10.60;;;9.50;;
11396;SDS011;5754;43.726;7.416;2023-02-18T10:12:16;9.43;;;8.53;;
11396;SDS011;5754;43.726;7.416;2023-02-18T10:14:52;11.00;;;9.10;;
11396;SDS011;5754;43.726;7.416;2023-02-18T10:17:29;10.80;;;9.33;;
11396;SDS011;5754;43.726;7.416;2023-02-18T10:20:05;10.73;;;9.63;;
11396;SDS011;5754;43.726;7.416;2023-02-18T10:22:41;9.97;;;8.53;;
11396;SDS011;5754;43.726;7.416;2023-02-18T10:25:17;9.23;;;8.43;;
11396;SDS011;5754;43.726;7.416;2023-02-18T10:27:52;9.43;;;8.53;;
11396;SDS011;5754;43.726;7.416;2023-02-18T10:30:39;8.70;;;7.90;;
11396;SDS011;5754;43.726;7.416;2023-02-18T10:33:34;9.00;;;8.20;;
11396;SDS011;5754;43.726;7.416;2023-02-18T10:36:25;9.63;;;8.77;;
11396;SDS011;5754;43.726;7.416;2023-02-18T10:44:53;13.30;;;10.30;;
11396;SDS011;5754;43.726;7.416;2023-02-18T10:47:37;10.40;;;9.47;;
11396;SDS011;5754;43.726;7.416;2023-02-18T10:50:29;11.50;;;9.97;;
11396;SDS011;5754;43.726;7.416;2023-02-18T10:53:52;10.70;;;9.60;;
11396;SDS011;5754;43.726;7.416;2023-02-18T10:59:22;10.40;;;9.33;;
11396;SDS011;5754;43.726;7.416;2023-02-18T11:01:59;10.27;;;9.27;;
11396;SDS011;5754;43.726;7.416;2023-02-18T11:04:38;9.90;;;8.90;;
11396;SDS011;5754;43.726;7.416;2023-02-18T11:07:22;9.80;;;8.90;;
11396;SDS011;5754;43.726;7.416;2023-02-18T11:09:59;9.77;;;8.90;;
11396;SDS011;5754;43.726;7.416;2023-02-18T11:16:10;9.53;;;8.53;;
11396;SDS011;5754;43.726;7.416;2023-02-18T11:18:46;9.77;;;8.87;;
11396;SDS011;5754;43.726;7.416;2023-02-18T11:21:23;9.00;;;8.10;;
11396;SDS011;5754;43.726;7.416;2023-02-18T11:24:05;9.43;;;8.47;;
11396;SDS011;5754;43.726;7.416;2023-02-18T11:26:39;9.47;;;8.60;;
11396;SDS011;5754;43.726;7.416;2023-02-18T11:29:23;13.17;;;8.97;;
11396;SDS011;5754;43.726;7.416;2023-02-18T11:34:40;9.20;;;8.30;;
11396;SDS011;5754;43.726;7.416;2023-02-18T11:37:17;9.50;;;8.60;;
11396;SDS011;5754;43.726;7.416;2023-02-18T11:39:53;10.63;;;8.60;;
11396;SDS011;5754;43.726;7.416;2023-02-18T11:42:29;9.63;;;8.57;;
11396;SDS011;5754;43.726;7.416;2023-02-18T11:45:04;11.40;;;9.13;;
11396;SDS011;5754;43.726;7.416;2023-02-18T11:47:40;9.33;;;8.43;;
11396;SDS011;5754;43.726;7.416;2023-02-18T11:50:16;12.03;;;8.83;;
11396;SDS011;5754;43.726;7.416;2023-02-18T11:52:54;9.70;;;8.80;;
11396;SDS011;5754;43.726;7.416;2023-02-18T11:55:30;10.03;;;9.03;;
11396;SDS011;5754;43.726;7.416;2023-02-18T11:58:05;12.40;;;8.50;;
11396;SDS011;5754;43.726;7.416;2023-02-18T12:00:45;10.47;;;8.97;;
11396;SDS011;5754;43.726;7.416;2023-02-18T12:03:36;9.90;;;8.77;;
11396;SDS011;5754;43.726;7.416;2023-02-18T12:06:16;11.30;;;10.07;;
11396;SDS011;5754;43.726;7.416;2023-02-18T12:08:56;10.33;;;9.10;;
11396;SDS011;5754;43.726;7.416;2023-02-18T12:11:35;10.33;;;9.23;;
11396;SDS011;5754;43.726;7.416;2023-02-18T12:14:16;9.77;;;8.87;;
11396;SDS011;5754;43.726;7.416;2023-02-18T12:17:04;10.63;;;9.53;;
11396;SDS011;5754;43.726;7.416;2023-02-18T12:19:50;10.63;;;9.50;;
11396;SDS011;5754;43.726;7.416;2023-02-18T12:22:43;10.57;;;9.27;;
11396;SDS011;5754;43.726;7.416;2023-02-18T12:25:39;10.70;;;9.10;;
11396;SDS011;5754;43.726;7.416;2023-02-18T12:35:22;10.30;;;9.20;;
11396;SDS011;5754;43.726;7.416;2023-02-18T12:38:10;10.87;;;9.97;;
11396;SDS011;5754;43.726;7.416;2023-02-18T12:41:13;11.50;;;10.33;;
11396;SDS011;5754;43.726;7.416;2023-02-18T12:44:10;10.07;;;9.07;;
11396;SDS011;5754;43.726;7.416;2023-02-18T12:48:25;13.27;;;10.00;;
11396;SDS011;5754;43.726;7.416;2023-02-18T12:51:07;10.27;;;9.27;;
11396;SDS011;5754;43.726;7.416;2023-02-18T12:59:42;11.23;;;9.90;;
11396;SDS011;5754;43.726;7.416;2023-02-18T13:15:37;11.27;;;9.07;;
11396;SDS011;5754;43.726;7.416;2023-02-18T13:18:15;11.37;;;10.30;;
11396;SDS011;5754;43.726;7.416;2023-02-18T13:20:56;10.80;;;9.80;;
11396;SDS011;5754;43.726;7.416;2023-02-18T13:23:52;11.20;;;10.20;;
11396;SDS011;5754;43.726;7.416;2023-02-18T13:26:28;11.80;;;9.43;;
11396;SDS011;5754;43.726;7.416;2023-02-18T13:33:45;10.57;;;9.57;;
11396;SDS011;5754;43.726;7.416;2023-02-18T13:36:32;10.90;;;10.00;;
11396;SDS011;5754;43.726;7.416;2023-02-18T13:39:11;10.70;;;9.60;;
11396;SDS011;5754;43.726;7.416;2023-02-18T13:42:09;11.00;;;9.87;;
11396;SDS011;5754;43.726;7.416;2023-02-18T13:45:27;10.60;;;9.60;;
11396;SDS011;5754;43.726;7.416;2023-02-18T13:48:20;10.47;;;9.63;;
11396;SDS011;5754;43.726;7.416;2023-02-18T13:51:01;13.37;;;11.10;;
11396;SDS011;5754;43.726;7.416;2023-02-18T13:53:37;13.07;;;11.73;;
11396;SDS011;5754;43.726;7.416;2023-02-18T13:56:19;12.43;;;11.33;;
11396;SDS011;5754;43.726;7.416;2023-02-18T13:59:07;11.73;;;10.57;;
11396;SDS011;5754;43.726;7.416;2023-02-18T14:01:43;12.50;;;10.33;;
11396;SDS011;5754;43.726;7.416;2023-02-18T14:13:52;12.40;;;11.10;;
11396;SDS011;5754;43.726;7.416;2023-02-18T14:16:43;11.27;;;10.13;;
11396;SDS011;5754;43.726;7.416;2023-02-18T14:20:47;11.80;;;10.60;;
11396;SDS011;5754;43.726;7.416;2023-02-18T14:26:45;13.57;;;11.73;;
11396;SDS011;5754;43.726;7.416;2023-02-18T14:29:27;12.00;;;10.60;;
11396;SDS011;5754;43.726;7.416;2023-02-18T14:32:08;11.90;;;10.70;;
11396;SDS011;5754;43.726;7.416;2023-02-18T14:40:42;12.93;;;11.63;;
11396;SDS011;5754;43.726;7.416;2023-02-18T14:43:28;13.10;;;11.63;;
11396;SDS011;5754;43.726;7.416;2023-02-18T14:46:10;12.30;;;11.07;;
11396;SDS011;5754;43.726;7.416;2023-02-18T14:49:01;11.93;;;10.73;;
11396;SDS011;5754;43.726;7.416;2023-02-18T14:51:39;13.37;;;10.90;;
11396;SDS011;5754;43.726;7.416;2023-02-18T14:54:17;11.50;;;9.47;;
11396;SDS011;5754;43.726;7.416;2023-02-18T14:56:55;11.17;;;10.03;;
11396;SDS011;5754;43.726;7.416;2023-02-18T14:59:33;11.60;;;10.40;;
11396;SDS011;5754;43.726;7.416;2023-02-18T15:02:27;11.37;;;9.73;;
11396;SDS011;5754;43.726;7.416;2023-02-18T15:05:12;10.17;;;9.03;;
11396;SDS011;5754;43.726;7.416;2023-02-18T15:07:58;10.80;;;9.80;;
11396;SDS011;5754;43.726;7.416;2023-02-18T15:10:34;11.13;;;10.03;;
11396;SDS011;5754;43.726;7.416;2023-02-18T15:13:34;12.27;;;10.83;;
11396;SDS011;5754;43.726;7.416;2023-02-18T15:16:17;11.30;;;10.27;;
11396;SDS011;5754;43.726;7.416;2023-02-18T15:18:54;11.13;;;10.07;;
11396;SDS011;5754;43.726;7.416;2023-02-18T15:21:31;10.33;;;9.43;;
11396;SDS011;5754;43.726;7.416;2023-02-18T15:24:14;10.90;;;9.80;;
11396;SDS011;5754;43.726;7.416;2023-02-18T15:27:08;12.23;;;10.00;;
11396;SDS011;5754;43.726;7.416;2023-02-18T15:29:48;10.67;;;9.63;;
11396;SDS011;5754;43.726;7.416;2023-02-18T15:32:25;10.90;;;9.77;;
11396;SDS011;5754;43.726;7.416;2023-02-18T15:35:12;11.53;;;10.50;;
11396;SDS011;5754;43.726;7.416;2023-02-18T15:37:52;11.07;;;10.10;;
11396;SDS011;5754;43.726;7.416;2023-02-18T15:40:35;11.00;;;10.00;;
11396;SDS011;5754;43.726;7.416;2023-02-18T15:43:11;11.30;;;10.13;;
11396;SDS011;5754;43.726;7.416;2023-02-18T15:45:48;12.77;;;11.47;;
11396;SDS011;5754;43.726;7.416;2023-02-18T15:48:32;15.63;;;13.67;;
11396;SDS011;5754;43.726;7.416;2023-02-18T15:51:10;12.57;;;11.47;;
11396;SDS011;5754;43.726;7.416;2023-02-18T15:53:51;12.53;;;11.23;;
11396;SDS011;5754;43.726;7.416;2023-02-18T15:56:31;10.50;;;9.50;;
11396;SDS011;5754;43.726;7.416;2023-02-18T15:59:17;11.67;;;10.57;;
11396;SDS011;5754;43.726;7.416;2023-02-18T16:01:56;11.07;;;10.13;;
11396;SDS011;5754;43.726;7.416;2023-02-18T16:04:37;11.57;;;10.20;;
11396;SDS011;5754;43.726;7.416;2023-02-18T16:07:25;11.30;;;9.70;;
11396;SDS011;5754;43.726;7.416;2023-02-18T16:10:20;10.90;;;9.80;;
11396;SDS011;5754;43.726;7.416;2023-02-18T16:12:56;10.17;;;9.27;;
11396;SDS011;5754;43.726;7.416;2023-02-18T16:15:38;11.30;;;9.93;;
11396;SDS011;5754;43.726;7.416;2023-02-18T16:18:56;11.20;;;10.10;;
11396;SDS011;5754;43.726;7.416;2023-02-18T16:21:41;11.53;;;10.40;;
11396;SDS011;5754;43.726;7.416;2023-02-18T16:24:22;11.47;;;10.37;;
11396;SDS011;5754;43.726;7.416;2023-02-18T16:26:59;11.70;;;10.60;;
11396;SDS011;5754;43.726;7.416;2023-02-18T16:29:42;10.93;;;9.97;;
11396;SDS011;5754;43.726;7.416;2023-02-18T16:32:17;10.13;;;9.07;;
11396;SDS011;5754;43.726;7.416;2023-02-18T16:34:57;10.33;;;9.43;;
11396;SDS011;5754;43.726;7.416;2023-02-18T16:37:36;11.23;;;10.23;;
11396;SDS011;5754;43.726;7.416;2023-02-18T16:43:23;11.40;;;10.30;;
11396;SDS011;5754;43.726;7.416;2023-02-18T16:46:04;13.73;;;12.43;;
11396;SDS011;5754;43.726;7.416;2023-02-18T16:48:40;15.20;;;13.70;;
11396;SDS011;5754;43.726;7.416;2023-02-18T16:54:11;13.90;;;11.60;;
11396;SDS011;5754;43.726;7.416;2023-02-18T16:56:47;12.53;;;11.47;;
11396;SDS011;5754;43.726;7.416;2023-02-18T16:59:22;10.80;;;9.80;;
11396;SDS011;5754;43.726;7.416;2023-02-18T17:01:58;11.57;;;10.47;;
11396;SDS011;5754;43.726;7.416;2023-02-18T17:04:32;14.63;;;10.67;;
11396;SDS011;5754;43.726;7.416;2023-02-18T17:07:10;10.83;;;9.83;;
11396;SDS011;5754;43.726;7.416;2023-02-18T17:09:45;11.57;;;10.47;;
11396;SDS011;5754;43.726;7.416;2023-02-18T17:12:23;11.70;;;10.70;;
11396;SDS011;5754;43.726;7.416;2023-02-18T17:14:57;13.23;;;11.53;;
11396;SDS011;5754;43.726;7.416;2023-02-18T17:17:32;12.93;;;11.73;;
11396;SDS011;5754;43.726;7.416;2023-02-18T17:20:07;12.67;;;11.57;;
11396;SDS011;5754;43.726;7.416;2023-02-18T17:22:44;13.10;;;11.90;;
11396;SDS011;5754;43.726;7.416;2023-02-18T17:25:23;12.03;;;10.97;;
11396;SDS011;5754;43.726;7.416;2023-02-18T17:27:59;13.67;;;12.27;;
11396;SDS011;5754;43.726;7.416;2023-02-18T17:30:37;15.30;;;13.93;;
11396;SDS011;5754;43.726;7.416;2023-02-18T17:33:14;14.70;;;13.30;;
11396;SDS011;5754;43.726;7.416;2023-02-18T17:35:52;12.10;;;11.00;;
11396;SDS011;5754;43.726;7.416;2023-02-18T17:38:27;12.63;;;11.43;;
11396;SDS011;5754;43.726;7.416;2023-02-18T17:41:02;14.87;;;11.90;;
11396;SDS011;5754;43.726;7.416;2023-02-18T17:43:36;13.33;;;12.13;;